Time;durP1;ratioP1;P1;durP2;ratioP2;P2;SDS_P1;SDS_P2;PMS_P1;PMS_P2;Temp;Humidity;BMP_temperature;BMP_pressure;BME280_temperature;BME280_humidity;BME280_pressure;Samples;Min_cycle;Max_cycle;Signal;HPM_P1;HPM_P2
2022/08/05 00:00:36;;;;;;;2.88;1.63;;;22.80;99.90;;;;;;4052137;29;20044;-70
2022/08/05 00:02:37;;;;;;;3.80;1.77;;;22.80;99.90;;;;;;4054076;29;20100;-70
2022/08/05 00:04:38;;;;;;;3.50;1.60;;;22.80;99.90;;;;;;4059511;29;20419;-70
2022/08/05 00:06:38;;;;;;;2.65;1.50;;;22.70;99.90;;;;;;4051585;29;20084;-70
2022/08/05 00:08:39;;;;;;;3.40;1.67;;;22.70;99.90;;;;;;4051641;29;20049;-70
2022/08/05 00:10:39;;;;;;;2.85;1.70;;;22.60;99.90;;;;;;4050671;29;20051;-70
2022/08/05 00:12:40;;;;;;;4.10;1.98;;;22.50;99.90;;;;;;4053444;29;20040;-70
2022/08/05 00:14:41;;;;;;;3.25;1.77;;;22.50;99.90;;;;;;4056366;29;20067;-69
2022/08/05 00:16:41;;;;;;;2.22;1.58;;;22.40;99.90;;;;;;4056317;29;20044;-70
2022/08/05 00:18:44;;;;;;;4.13;1.70;;;22.40;99.90;;;;;;4055704;29;20032;-70
2022/08/05 00:20:45;;;;;;;2.83;1.88;;;22.40;99.90;;;;;;4057821;29;20040;-69
2022/08/05 00:22:46;;;;;;;3.08;1.80;;;22.40;99.90;;;;;;4068279;29;20265;-70
2022/08/05 00:24:46;;;;;;;6.22;2.30;;;22.40;99.90;;;;;;4065621;29;20048;-69
2022/08/05 00:26:47;;;;;;;4.07;2.20;;;22.30;99.90;;;;;;4062713;29;20059;-69
2022/08/05 00:28:48;;;;;;;3.30;1.50;;;22.30;99.90;;;;;;4053912;29;20032;-70
2022/08/05 00:30:49;;;;;;;4.75;1.90;;;22.30;99.90;;;;;;4055133;29;20499;-70
2022/08/05 00:32:50;;;;;;;3.95;1.90;;;22.40;99.90;;;;;;4052737;29;20043;-69
2022/08/05 00:34:50;;;;;;;2.88;1.70;;;22.20;99.90;;;;;;4055252;29;20036;-69
2022/08/05 00:36:51;;;;;;;2.60;1.90;;;22.20;99.90;;;;;;4051355;29;20111;-70
2022/08/05 00:38:53;;;;;;;3.08;1.65;;;22.20;99.90;;;;;;4053327;29;20460;-70
2022/08/05 00:40:56;;;;;;;4.22;2.30;;;22.20;99.90;;;;;;4051490;29;20029;-70
2022/08/05 00:42:57;;;;;;;;;;;22.20;99.90;;;;;;4058606;29;20038;-70
2022/08/05 00:44:58;;;;;;;3.50;1.88;;;22.20;99.90;;;;;;4057092;29;19911;-69
2022/08/05 00:46:59;;;;;;;5.93;2.22;;;22.10;99.90;;;;;;4055305;29;20032;-69
2022/08/05 00:48:59;;;;;;;2.75;2.00;;;22.10;99.90;;;;;;4059168;29;20056;-70
2022/08/05 00:51:00;;;;;;;2.83;1.65;;;22.10;99.90;;;;;;4050577;29;20393;-69
2022/08/05 00:53:00;;;;;;;3.15;1.80;;;22.10;99.90;;;;;;4057148;29;20044;-69
2022/08/05 00:55:01;;;;;;;2.97;1.98;;;22.10;99.90;;;;;;4060971;29;20402;-69
2022/08/05 00:57:03;;;;;;;2.50;1.67;;;22.10;99.90;;;;;;4059682;29;20049;-69
2022/08/05 00:59:04;;;;;;;2.97;2.13;;;22.10;99.90;;;;;;4054529;29;20064;-69
2022/08/05 01:01:05;;;;;;;3.08;1.67;;;22.10;99.90;;;;;;4053703;29;20071;-70
2022/08/05 01:03:06;;;;;;;4.82;2.00;;;22.00;99.90;;;;;;4069191;29;20028;-69
2022/08/05 01:05:07;;;;;;;2.60;1.90;;;22.00;99.90;;;;;;4068118;29;20036;-70
2022/08/05 01:07:08;;;;;;;3.72;2.05;;;22.00;99.90;;;;;;4067221;29;20080;-69
2022/08/05 01:09:08;;;;;;;3.20;2.28;;;22.00;99.90;;;;;;4068143;29;20036;-70
2022/08/05 01:11:13;;;;;;;3.75;2.45;;;22.00;99.90;;;;;;4065613;29;20088;-70
2022/08/05 01:13:23;;;;;;;3.70;2.22;;;22.00;99.90;;;;;;4072612;29;20516;-70
2022/08/05 01:15:33;;;;;;;2.83;1.83;;;22.00;99.90;;;;;;4055023;29;20039;-70
2022/08/05 01:17:49;;;;;;;6.43;2.30;;;22.00;99.90;;;;;;4052841;29;20404;-69
2022/08/05 01:19:59;;;;;;;4.57;2.40;;;22.00;99.90;;;;;;4045957;29;20067;-69
2022/08/05 01:22:30;;;;;;;4.72;2.05;;;22.00;99.90;;;;;;4046519;29;20437;-69
2022/08/05 01:24:40;;;;;;;4.20;2.03;;;21.90;99.90;;;;;;4045866;29;20439;-70
2022/08/05 01:27:17;;;;;;;4.20;2.22;;;21.90;99.90;;;;;;4045479;29;20036;-70
2022/08/05 01:29:28;;;;;;;4.00;2.05;;;21.90;99.90;;;;;;4060626;29;20131;-69
2022/08/05 01:31:37;;;;;;;2.83;2.10;;;21.90;99.90;;;;;;4063511;29;20044;-69
2022/08/05 01:33:50;;;;;;;6.90;3.17;;;21.80;99.90;;;;;;4066666;29;20032;-69
2022/08/05 01:35:55;;;;;;;4.05;2.20;;;21.80;99.90;;;;;;4062339;29;20035;-69
2022/08/05 01:37:58;;;;;;;4.28;2.30;;;21.80;99.90;;;;;;4062171;29;20086;-70
2022/08/05 01:40:01;;;;;;;4.50;2.22;;;21.80;99.90;;;;;;4060245;29;20043;-70
2022/08/05 01:42:04;;;;;;;5.43;1.95;;;21.80;99.90;;;;;;4060665;29;20395;-69
2022/08/05 01:44:06;;;;;;;6.38;2.58;;;21.80;99.90;;;;;;4063340;29;20060;-69
2022/08/05 01:46:08;;;;;;;4.43;2.30;;;21.80;99.90;;;;;;4062590;29;20040;-69
2022/08/05 01:48:09;;;;;;;2.53;1.98;;;21.80;99.90;;;;;;4062342;29;20043;-70
2022/08/05 01:50:16;;;;;;;5.55;2.95;;;21.80;99.90;;;;;;4059430;29;20467;-70
2022/08/05 01:52:19;;;;;;;4.15;2.95;;;21.80;99.90;;;;;;4061449;29;20388;-70
2022/08/05 01:54:22;;;;;;;6.15;3.15;;;21.80;99.90;;;;;;4061498;29;20041;-70
2022/08/05 01:56:25;;;;;;;3.95;2.47;;;21.70;99.90;;;;;;4061186;29;20503;-69
2022/08/05 01:58:27;;;;;;;4.93;2.53;;;21.70;99.90;;;;;;4062682;29;20083;-69
2022/08/05 02:00:29;;;;;;;5.40;3.07;;;21.60;99.90;;;;;;4062049;29;20036;-70
2022/08/05 02:02:31;;;;;;;5.47;2.80;;;21.60;99.90;;;;;;4045398;29;20040;-70
2022/08/05 02:04:35;;;;;;;3.42;2.70;;;21.70;99.90;;;;;;4064744;29;20495;-69
2022/08/05 02:06:37;;;;;;;5.00;2.97;;;21.70;99.90;;;;;;4063771;29;20395;-69
2022/08/05 02:08:39;;;;;;;5.53;2.92;;;21.60;99.90;;;;;;4065058;29;20037;-70
2022/08/05 02:10:44;;;;;;;3.40;2.80;;;21.60;99.90;;;;;;4063907;29;20071;-69
2022/08/05 02:12:52;;;;;;;4.25;2.83;;;21.60;99.90;;;;;;4064217;29;20523;-69
2022/08/05 02:15:03;;;;;;;3.72;2.28;;;21.60;99.90;;;;;;4065598;29;20047;-69
2022/08/05 02:17:14;;;;;;;4.05;2.53;;;21.70;99.90;;;;;;4064940;29;20092;-69
2022/08/05 02:19:26;;;;;;;3.65;2.45;;;21.70;99.90;;;;;;4063745;29;20171;-70
2022/08/05 02:21:34;;;;;;;5.30;2.60;;;21.70;99.90;;;;;;4064332;29;20151;-70
2022/08/05 02:23:39;;;;;;;3.47;2.58;;;21.80;99.90;;;;;;4066332;29;20459;-70
2022/08/05 02:25:42;;;;;;;4.85;2.78;;;21.80;99.90;;;;;;4065908;29;20064;-71
2022/08/05 02:27:47;;;;;;;3.75;2.30;;;21.90;99.90;;;;;;4066649;29;20487;-71
2022/08/05 02:29:49;;;;;;;5.20;2.58;;;21.90;99.90;;;;;;4066417;29;20470;-71
2022/08/05 02:31:52;;;;;;;5.22;2.72;;;21.90;99.90;;;;;;4065217;29;20040;-71
2022/08/05 02:34:01;;;;;;;5.28;2.75;;;21.90;99.90;;;;;;4066500;29;20056;-71
2022/08/05 02:36:04;;;;;;;5.05;2.83;;;21.90;99.90;;;;;;4065617;29;20032;-71
2022/08/05 02:38:06;;;;;;;4.78;2.67;;;21.90;99.90;;;;;;4066075;29;20036;-71
2022/08/05 02:40:08;;;;;;;5.07;2.70;;;21.90;99.90;;;;;;4065308;29;20078;-71
2022/08/05 02:45:08;;;;;;;4.35;2.40;;;21.90;99.90;;;;;;4065793;29;20115;-72
2022/08/05 02:47:11;;;;;;;4.68;3.10;;;21.90;99.90;;;;;;4069052;29;20059;-71
2022/08/05 02:49:14;;;;;;;5.72;3.58;;;21.80;99.90;;;;;;4066850;29;20051;-71
2022/08/05 02:51:15;;;;;;;6.13;3.70;;;21.50;99.90;;;;;;4063842;29;20048;-71
2022/08/05 02:53:19;;;;;;;4.32;3.55;;;21.10;99.90;;;;;;4064080;29;20100;-71
2022/08/05 02:55:21;;;;;;;6.47;3.97;;;20.80;99.90;;;;;;4064506;29;20038;-71
2022/08/05 02:57:23;;;;;;;9.20;4.40;;;20.60;99.90;;;;;;4065004;29;20068;-71
2022/08/05 02:59:25;;;;;;;8.40;4.47;;;20.40;99.90;;;;;;4063813;29;20068;-71
2022/08/05 03:01:27;;;;;;;7.75;4.55;;;20.20;99.90;;;;;;4069148;29;20277;-72
2022/08/05 03:03:29;;;;;;;4.07;3.10;;;19.90;99.90;;;;;;4065592;29;20503;-72
2022/08/05 03:05:29;;;;;;;4.20;3.10;;;20.10;99.90;;;;;;4067379;29;20064;-71
2022/08/05 03:07:31;;;;;;;4.85;2.92;;;20.20;99.90;;;;;;4064637;29;20579;-72
2022/08/05 03:09:32;;;;;;;7.40;3.53;;;20.30;99.90;;;;;;4063450;29;20403;-71
2022/08/05 03:11:33;;;;;;;6.32;3.55;;;20.40;99.90;;;;;;4064948;29;20515;-72
2022/08/05 03:13:33;;;;;;;6.05;3.42;;;20.50;99.90;;;;;;4069693;29;20036;-72
2022/08/05 03:15:34;;;;;;;4.85;3.40;;;20.60;99.90;;;;;;4065989;29;20115;-71
2022/08/05 03:17:36;;;;;;;6.03;3.40;;;20.60;99.90;;;;;;4064092;29;20028;-71
2022/08/05 03:19:36;;;;;;;5.95;3.35;;;20.70;99.90;;;;;;4064959;29;20036;-72
2022/08/05 03:21:37;;;;;;;7.43;4.10;;;20.70;99.90;;;;;;4064717;29;20036;-72
2022/08/05 03:23:39;;;;;;;5.55;3.70;;;20.80;99.90;;;;;;4063458;29;20492;-71
2022/08/05 03:25:40;;;;;;;5.13;3.55;;;20.80;99.90;;;;;;4063234;29;20048;-71
2022/08/05 03:27:41;;;;;;;4.97;3.72;;;20.90;99.90;;;;;;4066604;29;20119;-71
2022/08/05 03:29:42;;;;;;;4.68;3.50;;;20.90;99.90;;;;;;4069321;29;20040;-71
2022/08/05 03:31:42;;;;;;;6.05;4.38;;;21.00;99.90;;;;;;4061740;29;20095;-71
2022/08/05 03:33:43;;;;;;;4.75;3.60;;;21.00;99.90;;;;;;4063958;29;20055;-71
2022/08/05 03:35:48;;;;;;;6.53;4.45;;;21.00;99.90;;;;;;4068269;29;20036;-71
2022/08/05 03:37:48;;;;;;;7.68;5.25;;;21.00;99.90;;;;;;4072302;29;20051;-71
2022/08/05 03:39:58;;;;;;;7.35;5.45;;;20.90;99.90;;;;;;4069738;29;20391;-71
2022/08/05 03:41:58;;;;;;;5.93;4.38;;;20.80;99.90;;;;;;4067634;29;20032;-71
2022/08/05 03:43:59;;;;;;;8.25;4.03;;;20.80;99.90;;;;;;4070821;29;20082;-71
2022/08/05 03:46:00;;;;;;;11.73;4.88;;;20.80;99.90;;;;;;4072497;29;20506;-71
2022/08/05 03:48:01;;;;;;;8.13;4.30;;;20.80;99.90;;;;;;4066118;29;20072;-71
2022/08/05 03:50:01;;;;;;;6.40;4.63;;;20.70;99.90;;;;;;4064282;29;20048;-71
2022/08/05 03:52:07;;;;;;;7.47;4.40;;;20.80;99.90;;;;;;4063482;29;20040;-71
2022/08/05 03:54:34;;;;;;;6.70;5.10;;;20.70;99.90;;;;;;4064530;29;20081;-71
2022/08/05 03:56:41;;;;;;;6.57;4.03;;;20.70;99.90;;;;;;4048586;29;20547;-70
2022/08/05 03:58:45;;;;;;;5.32;3.92;;;20.80;99.90;;;;;;4049725;29;20037;-70
2022/08/05 04:00:47;;;;;;;10.10;4.15;;;20.80;99.90;;;;;;4047309;29;20041;-70
2022/08/05 04:02:50;;;;;;;6.45;4.50;;;20.90;99.90;;;;;;4047992;29;20045;-70
2022/08/05 04:04:51;;;;;;;7.32;4.63;;;20.90;99.90;;;;;;4049738;29;20083;-70
2022/08/05 04:06:52;;;;;;;5.97;4.15;;;20.90;99.90;;;;;;4048471;29;20045;-70
2022/08/05 04:08:54;;;;;;;4.43;3.63;;;20.90;99.90;;;;;;4058044;29;20178;-70
2022/08/05 04:10:58;;;;;;;5.28;4.00;;;21.00;99.90;;;;;;4061891;29;20122;-70
2022/08/05 04:12:59;;;;;;;4.50;3.53;;;21.00;99.90;;;;;;4063152;29;20046;-70
2022/08/05 04:15:00;;;;;;;7.38;4.72;;;21.00;99.90;;;;;;4064511;29;20055;-71
2022/08/05 04:17:01;;;;;;;5.05;3.78;;;21.10;99.90;;;;;;4064641;29;20044;-71
2022/08/05 04:19:02;;;;;;;7.57;4.28;;;21.10;99.90;;;;;;4064497;29;20076;-70
2022/08/05 04:21:04;;;;;;;7.35;4.57;;;21.10;99.90;;;;;;4063616;29;20040;-70
2022/08/05 04:23:05;;;;;;;9.00;4.30;;;21.10;99.90;;;;;;4064777;29;20036;-69
2022/08/05 04:25:06;;;;;;;5.85;3.88;;;21.00;99.90;;;;;;4065378;29;20168;-71
2022/08/05 04:27:07;;;;;;;7.28;4.95;;;20.90;99.90;;;;;;4064453;29;20056;-70
2022/08/05 04:29:08;;;;;;;5.53;4.38;;;20.80;99.90;;;;;;4064299;29;20040;-70
2022/08/05 04:31:09;;;;;;;4.45;4.00;;;20.90;99.90;;;;;;4062206;29;20518;-70
2022/08/05 04:33:09;;;;;;;8.48;4.50;;;20.90;99.90;;;;;;4064172;29;20499;-70
2022/08/05 04:35:10;;;;;;;7.25;4.30;;;20.90;99.90;;;;;;4063349;29;20072;-72
2022/08/05 04:37:10;;;;;;;5.53;3.63;;;21.00;99.90;;;;;;4064690;29;20047;-70
2022/08/05 04:39:11;;;;;;;6.70;4.03;;;21.00;99.90;;;;;;4064075;29;20100;-70
2022/08/05 04:41:11;;;;;;;4.32;3.47;;;21.00;99.90;;;;;;4062811;29;20032;-70
2022/08/05 04:43:12;;;;;;;4.43;3.22;;;21.00;99.90;;;;;;4064317;29;20040;-70
2022/08/05 04:45:13;;;;;;;6.13;4.05;;;21.10;99.90;;;;;;4063618;29;20487;-70
2022/08/05 04:47:13;;;;;;;4.70;3.22;;;21.10;99.90;;;;;;4062082;29;20446;-70
2022/08/05 04:49:14;;;;;;;4.18;3.78;;;21.10;99.90;;;;;;4061386;29;20040;-70
2022/08/05 04:51:16;;;;;;;5.57;3.78;;;21.10;99.90;;;;;;4063332;29;20571;-69
2022/08/05 04:53:17;;;;;;;5.07;3.80;;;21.20;99.90;;;;;;4063361;29;20058;-70
2022/08/05 04:55:18;;;;;;;8.27;4.22;;;21.20;99.90;;;;;;4063627;29;20081;-70
2022/08/05 04:57:18;;;;;;;7.78;4.80;;;21.10;99.90;;;;;;4064042;29;20034;-70
2022/08/05 04:59:21;;;;;;;5.13;3.60;;;21.10;99.90;;;;;;4067424;29;20079;-70
2022/08/05 05:01:21;;;;;;;6.93;4.20;;;21.10;99.90;;;;;;4052180;29;20040;-69
2022/08/05 05:03:22;;;;;;;5.70;4.03;;;21.10;99.90;;;;;;4071544;29;20506;-70
2022/08/05 05:05:22;;;;;;;5.03;3.80;;;21.10;99.90;;;;;;4064616;29;20044;-70
2022/08/05 05:07:23;;;;;;;7.95;4.60;;;21.10;99.90;;;;;;4060434;29;20055;-69
2022/08/05 05:09:24;;;;;;;6.63;4.10;;;21.10;99.90;;;;;;4061231;29;20132;-70
2022/08/05 05:11:24;;;;;;;7.88;4.47;;;21.00;99.90;;;;;;4061610;29;20028;-70
2022/08/05 05:13:25;;;;;;;9.02;4.05;;;20.90;99.90;;;;;;4064213;29;20123;-70
2022/08/05 05:15:25;;;;;;;7.97;4.32;;;20.80;99.90;;;;;;4062022;29;20044;-70
2022/08/05 05:17:26;;;;;;;8.85;4.10;;;20.80;99.90;;;;;;4065425;29;20040;-70
2022/08/05 05:19:27;;;;;;;8.13;4.75;;;20.70;99.90;;;;;;4062606;29;20380;-70
2022/08/05 05:21:27;;;;;;;5.55;3.60;;;20.50;99.90;;;;;;4062574;29;20044;-70
2022/08/05 05:23:28;;;;;;;9.23;4.05;;;20.40;99.90;;;;;;4065297;29;20512;-71
2022/08/05 05:25:29;;;;;;;6.32;3.85;;;20.30;99.90;;;;;;4071224;29;20048;-71
2022/08/05 05:27:31;;;;;;;6.40;3.60;;;20.20;99.90;;;;;;4065503;29;20040;-71
2022/08/05 05:29:31;;;;;;;6.60;3.13;;;20.20;99.90;;;;;;4067575;29;20034;-71
2022/08/05 05:31:32;;;;;;;5.30;2.88;;;20.10;99.90;;;;;;4067789;29;20043;-71
2022/08/05 05:33:33;;;;;;;6.30;3.20;;;20.10;99.90;;;;;;4067604;29;20028;-71
2022/08/05 05:35:34;;;;;;;6.28;3.35;;;20.20;99.90;;;;;;4050915;29;20444;-71
2022/08/05 05:37:56;;;;;;;5.75;3.22;;;20.10;99.90;;;;;;4070627;29;20055;-71
2022/08/05 05:39:56;;;;;;;4.20;2.75;;;20.20;99.90;;;;;;4064820;29;20042;-71
2022/08/05 05:41:57;;;;;;;6.20;3.08;;;20.20;99.90;;;;;;4071684;29;20032;-71
2022/08/05 05:43:58;;;;;;;5.75;3.40;;;20.20;99.90;;;;;;4071447;29;20115;-71
2022/08/05 05:45:58;;;;;;;5.78;2.90;;;20.20;99.90;;;;;;4071030;29;20028;-70
2022/08/05 05:47:59;;;;;;;5.72;2.90;;;20.20;99.90;;;;;;4068938;29;20040;-71
2022/08/05 05:50:00;;;;;;;4.72;2.90;;;20.20;99.90;;;;;;4068073;29;20051;-71
2022/08/05 05:52:01;;;;;;;6.28;2.90;;;20.20;99.90;;;;;;4069018;29;20056;-71
2022/08/05 05:54:01;;;;;;;4.95;3.15;;;20.20;99.90;;;;;;4071775;29;20514;-71
2022/08/05 05:56:02;;;;;;;8.43;3.15;;;20.20;99.90;;;;;;4068894;29;20056;-71
2022/08/05 05:58:03;;;;;;;7.20;3.22;;;20.20;99.90;;;;;;4069600;29;20029;-71
2022/08/05 06:00:06;;;;;;;5.72;3.42;;;20.20;99.90;;;;;;4067789;29;20046;-72
2022/08/05 06:02:07;;;;;;;8.75;2.97;;;20.00;99.90;;;;;;4071408;29;20055;-71
2022/08/05 06:04:10;;;;;;;6.70;3.00;;;20.00;99.90;;;;;;4070692;29;20028;-71
2022/08/05 06:06:10;;;;;;;6.45;2.65;;;20.00;99.90;;;;;;4067602;29;20041;-71
2022/08/05 06:08:11;;;;;;;6.70;3.13;;;20.10;99.90;;;;;;4067616;29;20515;-71
2022/08/05 06:10:12;;;;;;;9.18;3.33;;;20.10;99.90;;;;;;4067723;29;20028;-71
2022/08/05 06:12:13;;;;;;;5.32;2.70;;;20.10;99.90;;;;;;4068940;29;20031;-71
2022/08/05 06:14:13;;;;;;;9.63;3.00;;;20.10;99.90;;;;;;4069743;29;20373;-71
2022/08/05 06:16:14;;;;;;;6.30;2.70;;;20.10;99.90;;;;;;4070100;29;20122;-71
2022/08/05 06:18:14;;;;;;;5.10;2.33;;;20.10;99.90;;;;;;4071703;29;20028;-71
2022/08/05 06:20:15;;;;;;;5.07;2.65;;;20.10;99.90;;;;;;4065818;29;20040;-71
2022/08/05 06:22:23;;;;;;;6.43;2.70;;;20.10;99.90;;;;;;4065569;29;20072;-71
2022/08/05 06:24:23;;;;;;;3.35;2.30;;;20.10;99.90;;;;;;4064136;29;20055;-70
2022/08/05 06:26:24;;;;;;;4.22;1.83;;;20.10;99.90;;;;;;4062779;29;20095;-71
2022/08/05 06:28:25;;;;;;;3.22;1.92;;;20.00;99.90;;;;;;4063973;29;20427;-71
2022/08/05 06:30:26;;;;;;;4.88;1.98;;;20.00;99.90;;;;;;4077447;28;20035;-71
2022/08/05 06:32:26;;;;;;;3.58;2.20;;;20.00;99.90;;;;;;4063760;29;20024;-71
2022/08/05 06:34:27;;;;;;;3.45;1.88;;;19.90;99.90;;;;;;4061215;29;20639;-70
2022/08/05 06:36:28;;;;;;;3.25;1.80;;;19.90;99.90;;;;;;4060870;29;20036;-71
2022/08/05 06:38:28;;;;;;;6.57;2.75;;;19.80;99.90;;;;;;4058355;29;20044;-71
2022/08/05 06:40:29;;;;;;;5.40;1.95;;;19.90;99.90;;;;;;4058553;29;20100;-71
2022/08/05 06:42:30;;;;;;;3.28;1.88;;;19.90;99.90;;;;;;4060002;29;20250;-71
2022/08/05 06:44:31;;;;;;;4.65;1.80;;;19.90;99.90;;;;;;4062175;29;20127;-71
2022/08/05 06:46:31;;;;;;;4.32;1.83;;;19.90;99.90;;;;;;4062788;29;20028;-71
2022/08/05 06:48:33;;;;;;;5.40;2.00;;;19.90;99.90;;;;;;4062206;29;20075;-70
2022/08/05 06:50:34;;;;;;;7.05;2.58;;;19.90;99.90;;;;;;4061415;29;20043;-70
2022/08/05 06:52:35;;;;;;;4.43;2.40;;;19.90;99.90;;;;;;4063094;29;20052;-71
2022/08/05 06:54:35;;;;;;;4.45;1.98;;;19.90;99.90;;;;;;4063497;29;20040;-71
2022/08/05 06:56:36;;;;;;;5.88;2.47;;;19.90;99.90;;;;;;4062533;29;20055;-71
2022/08/05 06:58:37;;;;;;;5.10;2.20;;;19.90;99.90;;;;;;4062963;29;20428;-71
2022/08/05 07:00:37;;;;;;;5.07;2.35;;;19.90;99.90;;;;;;4062333;29;20139;-71
2022/08/05 07:02:42;;;;;;;4.45;1.90;;;19.90;99.90;;;;;;4063212;29;20119;-71
2022/08/05 07:04:43;;;;;;;5.65;2.40;;;19.90;99.90;;;;;;4061151;29;20071;-71
2022/08/05 07:06:43;;;;;;;4.35;2.00;;;19.80;99.90;;;;;;4063601;29;20470;-71
2022/08/05 07:08:44;;;;;;;3.95;1.95;;;19.90;99.90;;;;;;4062674;29;20078;-70
2022/08/05 07:10:45;;;;;;;4.55;2.00;;;19.80;99.90;;;;;;4062193;29;20111;-70
2022/08/05 07:17:24;;;;;;;5.25;2.30;;;19.90;99.90;;;;;;4066165;29;20028;-71
2022/08/05 07:19:26;;;;;;;5.78;2.08;;;19.80;99.90;;;;;;4064602;29;20432;-71
2022/08/05 07:21:26;;;;;;;3.20;1.67;;;19.80;99.90;;;;;;4069128;29;20475;-71
2022/08/05 07:23:27;;;;;;;4.75;2.10;;;19.80;99.90;;;;;;4068744;29;20340;-71
2022/08/05 07:25:28;;;;;;;5.22;2.15;;;19.90;99.90;;;;;;4073955;29;21313;-70
2022/08/05 07:27:28;;;;;;;4.75;1.95;;;19.90;99.90;;;;;;4074111;29;20542;-70
2022/08/05 07:29:29;;;;;;;4.78;1.70;;;19.90;99.90;;;;;;4070268;29;20403;-70
2022/08/05 07:31:30;;;;;;;5.00;1.70;;;19.90;99.90;;;;;;4069589;29;20146;-71
2022/08/05 07:33:30;;;;;;;2.25;1.52;;;20.00;99.90;;;;;;4066489;29;20036;-70
2022/08/05 07:35:31;;;;;;;4.30;1.67;;;20.00;99.90;;;;;;4064662;29;20040;-70
2022/08/05 07:37:32;;;;;;;4.28;1.75;;;20.00;99.90;;;;;;4068127;29;20036;-71
2022/08/05 07:39:33;;;;;;;3.35;1.60;;;20.00;99.90;;;;;;4068277;29;20099;-70
2022/08/05 07:41:34;;;;;;;3.67;1.80;;;20.00;99.90;;;;;;4069696;29;20036;-70
2022/08/05 07:43:35;;;;;;;3.60;1.70;;;20.00;99.90;;;;;;4065269;29;20036;-71
2022/08/05 07:45:36;;;;;;;2.75;1.50;;;20.10;99.90;;;;;;4065106;29;20047;-71
2022/08/05 07:47:36;;;;;;;3.80;1.90;;;20.10;99.90;;;;;;4065875;29;20037;-70
2022/08/05 07:49:37;;;;;;;4.18;1.58;;;20.10;99.90;;;;;;4064670;29;20107;-70
2022/08/05 07:51:37;;;;;;;5.35;1.80;;;20.10;99.90;;;;;;4064402;29;20071;-70
2022/08/05 07:53:38;;;;;;;5.18;1.83;;;20.10;99.90;;;;;;4065469;29;20040;-70
2022/08/05 07:55:38;;;;;;;4.13;1.75;;;20.10;99.90;;;;;;4070439;29;20436;-70
2022/08/05 07:57:39;;;;;;;1.98;1.52;;;20.10;99.90;;;;;;4074272;29;20490;-71
2022/08/05 07:59:40;;;;;;;3.65;1.80;;;20.10;99.90;;;;;;4067226;29;20040;-71
2022/08/05 08:01:40;;;;;;;4.45;2.08;;;20.20;99.90;;;;;;4062014;29;20051;-71
2022/08/05 08:03:41;;;;;;;3.15;1.52;;;20.10;99.90;;;;;;4063745;29;20172;-71
2022/08/05 08:05:43;;;;;;;3.35;1.98;;;20.10;99.90;;;;;;4063963;29;20169;-71
2022/08/05 08:07:43;;;;;;;2.17;1.17;;;20.10;99.90;;;;;;4060752;29;20072;-71
2022/08/05 08:09:45;;;;;;;3.10;1.80;;;20.10;99.90;;;;;;4064306;29;20039;-71
2022/08/05 08:11:46;;;;;;;2.42;1.50;;;20.20;99.90;;;;;;4064013;29;20123;-71
2022/08/05 08:13:46;;;;;;;3.00;1.40;;;20.10;99.90;;;;;;4064818;29;20047;-70
2022/08/05 08:15:47;;;;;;;4.53;1.98;;;20.20;99.90;;;;;;4064733;29;20043;-70
2022/08/05 08:17:47;;;;;;;5.32;2.00;;;20.20;99.90;;;;;;4065469;29;20037;-71
2022/08/05 08:19:48;;;;;;;3.75;1.83;;;20.20;99.90;;;;;;4064334;29;20575;-70
2022/08/05 08:21:48;;;;;;;3.75;1.58;;;20.20;99.90;;;;;;4063651;29;20389;-70
2022/08/05 08:23:50;;;;;;;2.95;1.50;;;20.20;99.90;;;;;;4061773;29;20029;-70
2022/08/05 08:25:50;;;;;;;4.40;1.70;;;20.20;99.90;;;;;;4060510;29;20032;-70
2022/08/05 08:27:51;;;;;;;4.30;1.70;;;20.30;99.90;;;;;;4062213;29;20578;-71
2022/08/05 08:29:51;;;;;;;4.05;1.70;;;20.20;99.90;;;;;;4061483;29;20044;-70
2022/08/05 08:31:52;;;;;;;3.85;1.38;;;20.20;99.90;;;;;;4062215;29;20500;-70
2022/08/05 08:33:53;;;;;;;3.53;1.35;;;20.20;99.90;;;;;;4059557;29;20574;-71
2022/08/05 08:35:53;;;;;;;3.00;1.92;;;20.30;99.90;;;;;;4060127;29;20044;-71
2022/08/05 08:37:54;;;;;;;4.45;1.75;;;20.30;99.90;;;;;;4062045;29;20055;-71
2022/08/05 08:39:54;;;;;;;3.75;1.85;;;20.30;99.90;;;;;;4060201;29;20187;-71
2022/08/05 08:41:56;;;;;;;2.72;1.50;;;20.20;99.90;;;;;;4061195;29;20055;-71
2022/08/05 08:43:57;;;;;;;4.50;1.77;;;20.20;99.90;;;;;;4061392;29;20071;-71
2022/08/05 08:46:00;;;;;;;3.80;1.75;;;20.20;99.90;;;;;;4061188;29;20040;-71
2022/08/05 08:48:03;;;;;;;3.67;1.63;;;20.20;99.90;;;;;;4061792;29;20043;-71
2022/08/05 08:50:06;;;;;;;4.18;2.10;;;20.20;99.90;;;;;;4060506;29;20055;-71
2022/08/05 08:52:21;;;;;;;4.07;1.80;;;20.20;99.90;;;;;;4061327;29;20424;-71
2022/08/05 08:54:21;;;;;;;5.20;2.08;;;20.30;99.90;;;;;;4060796;29;20732;-71
2022/08/05 08:56:22;;;;;;;3.88;1.85;;;20.30;99.90;;;;;;4061974;29;20067;-71
2022/08/05 08:58:23;;;;;;;4.70;1.55;;;20.40;99.90;;;;;;4060366;29;20043;-71
2022/08/05 09:00:24;;;;;;;1.63;1.17;;;20.40;99.90;;;;;;4060125;29;20044;-71
2022/08/05 09:02:24;;;;;;;2.92;1.73;;;20.50;99.90;;;;;;4061865;29;20040;-71
2022/08/05 09:04:26;;;;;;;4.22;1.90;;;20.50;99.90;;;;;;4060864;29;20036;-71
2022/08/05 09:06:29;;;;;;;2.77;1.80;;;20.60;99.90;;;;;;4060732;29;20051;-70
2022/08/05 09:08:29;;;;;;;2.85;1.60;;;20.60;99.90;;;;;;4061242;29;20479;-71
2022/08/05 09:10:30;;;;;;;3.78;1.95;;;20.60;99.90;;;;;;4060780;29;20123;-71
2022/08/05 09:12:31;;;;;;;5.10;1.95;;;20.70;99.90;;;;;;4061543;29;20032;-71
2022/08/05 09:14:32;;;;;;;5.22;2.28;;;20.70;99.90;;;;;;4061262;29;20056;-71
2022/08/05 09:16:32;;;;;;;5.22;2.17;;;20.70;99.90;;;;;;4060905;29;20040;-71
2022/08/05 09:18:35;;;;;;;3.95;1.67;;;20.70;99.90;;;;;;4060889;29;20506;-70
2022/08/05 09:20:40;;;;;;;3.97;2.10;;;20.70;99.90;;;;;;4060214;29;20056;-71
2022/08/05 09:23:10;;;;;;;4.30;1.83;;;20.70;99.90;;;;;;4059955;29;20990;-71
2022/08/05 09:25:19;;;;;;;5.53;1.58;;;20.80;99.90;;;;;;4044827;29;20033;-71
2022/08/05 09:27:34;;;;;;;4.13;2.00;;;20.90;99.90;;;;;;4045603;29;20037;-71
2022/08/05 09:29:45;;;;;;;4.32;2.03;;;20.90;99.90;;;;;;4045281;29;20051;-71
2022/08/05 09:32:03;;;;;;;3.90;1.73;;;21.00;99.90;;;;;;4044252;29;20032;-71
2022/08/05 09:34:08;;;;;;;3.30;1.70;;;21.00;99.90;;;;;;4043535;29;20068;-71
2022/08/05 09:36:09;;;;;;;7.72;2.30;;;21.10;99.90;;;;;;4042521;29;20047;-71
2022/08/05 09:38:09;;;;;;;2.88;1.55;;;21.20;99.90;;;;;;4060350;29;20032;-71
2022/08/05 09:40:31;;;;;;;5.25;1.95;;;21.20;99.90;;;;;;4058724;29;20024;-72
2022/08/05 09:42:39;;;;;;;2.10;1.58;;;21.40;99.90;;;;;;4060953;29;20544;-70
2022/08/05 09:44:43;;;;;;;5.88;2.03;;;21.40;99.90;;;;;;4048460;29;20048;-70
2022/08/05 09:46:44;;;;;;;4.45;1.85;;;21.40;99.90;;;;;;4044887;29;20032;-70
2022/08/05 09:48:44;;;;;;;3.97;1.70;;;21.40;99.90;;;;;;4045203;29;20048;-71
2022/08/05 09:50:50;;;;;;;4.15;1.85;;;21.40;99.90;;;;;;4045026;29;20244;-71
2022/08/05 09:52:57;;;;;;;1.50;1.10;;;21.50;99.90;;;;;;4045623;29;20112;-70
2022/08/05 09:55:11;;;;;;;5.30;1.52;;;21.50;99.90;;;;;;4044982;29;20056;-71
2022/08/05 09:57:35;;;;;;;6.45;1.60;;;21.60;99.90;;;;;;4042653;29;20036;-71
2022/08/05 09:59:35;;;;;;;4.22;1.95;;;21.50;99.90;;;;;;4044053;29;20036;-71
2022/08/05 10:01:40;;;;;;;5.28;1.98;;;21.50;99.90;;;;;;4044573;29;20153;-71
2022/08/05 10:04:03;;;;;;;3.65;1.25;;;21.50;99.90;;;;;;4046245;29;20135;-71
2022/08/05 10:06:08;;;;;;;4.95;1.55;;;21.50;99.90;;;;;;4044306;29;20132;-71
2022/08/05 10:08:09;;;;;;;3.38;1.60;;;21.50;99.90;;;;;;4047356;29;20057;-71
2022/08/05 10:10:10;;;;;;;4.18;1.40;;;21.60;99.90;;;;;;4044843;29;20021;-72
2022/08/05 10:12:10;;;;;;;3.28;1.67;;;21.60;99.90;;;;;;4044922;29;20041;-70
2022/08/05 10:14:22;;;;;;;6.05;1.52;;;21.70;99.90;;;;;;4045446;29;20036;-70
2022/08/05 10:16:34;;;;;;;4.25;1.50;;;21.80;99.90;;;;;;4045012;29;20033;-70
2022/08/05 10:18:36;;;;;;;2.53;1.30;;;21.80;99.90;;;;;;4046063;29;20044;-71
2022/08/05 10:20:43;;;;;;;3.15;1.40;;;21.90;99.90;;;;;;4051315;29;20024;-70
2022/08/05 10:22:44;;;;;;;2.10;0.85;;;22.00;99.90;;;;;;4046835;29;20032;-70
2022/08/05 10:24:45;;;;;;;1.95;1.00;;;22.00;99.90;;;;;;4030824;29;20113;-70
2022/08/05 10:26:47;;;;;;;1.67;1.00;;;22.00;99.90;;;;;;4060726;29;20037;-70
2022/08/05 10:28:48;;;;;;;;;;;22.10;99.90;;;;;;4066272;29;20032;-70
2022/08/05 10:30:50;;;;;;;3.65;1.33;;;22.20;99.90;;;;;;4051273;29;20371;-71
2022/08/05 10:32:50;;;;;;;3.05;1.35;;;22.20;99.90;;;;;;4060894;29;20028;-71
2022/08/05 10:34:51;;;;;;;2.72;1.33;;;22.30;99.90;;;;;;4064626;29;20043;-70
2022/08/05 10:36:52;;;;;;;3.78;1.42;;;22.30;99.90;;;;;;4055640;29;20063;-70
2022/08/05 10:39:05;;;;;;;4.05;1.08;;;22.40;99.90;;;;;;4051437;29;20036;-71
2022/08/05 10:41:26;;;;;;;4.38;1.65;;;22.40;99.90;;;;;;4062683;29;20392;-70
2022/08/05 10:43:34;;;;;;;3.75;1.50;;;22.50;99.90;;;;;;4050555;29;20052;-71
2022/08/05 10:45:35;;;;;;;2.20;1.20;;;22.40;99.90;;;;;;4044552;29;20085;-71
2022/08/05 10:47:43;;;;;;;2.63;1.13;;;22.50;99.90;;;;;;4065697;29;20040;-71